Decoded Metar for KXMR (CAPE CANAVERAL in FL, USA) (IATA:XMR) | Meteo·Mobile Aviation Weather
aviador You're here:

KXMR Decoded Metar

CAPE CANAVERAL in FL, USA
Report Time2018-09-21 15:56:00
UTC Time2018-09-21 18:02:44
Flight Rules Old
Wind050° at 08 kt
W.Decomp.*RWY 13: 1.9 kt HW 7.8 kt LCW
W.Rank050° ranks 16
Current wind is above 050° avg. (6.4)
Visibility9999 m
Phenomena:N/A
Clouds:Few 028 Hf
Expected CloudBase > 3,200 ft AGL from Temp-Dew spread
CeilingNone
Temp31°C (ISA +16)
Dew Point23°C (62% RH)
Heat Index35.4°C
QNH1019 hPa
Density Alt2,011 ft
Elevation10 ft
Report Wrong Elevation
Raw Report
KXMR 211556Z AUTO 05008KT 10SM FEW028 31/23 A3009 RMK AO2 SLP192
T03100226 $=

Extra information for KXMR:More info

Metar Taf Metar & Taf Last 4 Metars F.Rules Stats Wind Profile Meteogram Temp Stats Airport Information Weather charts Add Link Nearby VenuesMetar ALERT Operation Metar Decoded Social comments

AIRNAV info for KXMR